createdAt,value
2019-03-28T00:00:22.287Z,8.2
2019-03-28T00:00:52.972Z,8.2
2019-03-28T00:01:23.635Z,8.2
2019-03-28T00:01:54.325Z,8.2
2019-03-28T00:02:24.916Z,8.2
2019-03-28T00:02:55.504Z,8.2
2019-03-28T00:04:17.913Z,8.2
2019-03-28T00:05:16.194Z,8.2
2019-03-28T00:06:15.074Z,8.2
2019-03-28T00:07:14.457Z,8.1
2019-03-28T00:08:13.839Z,8.1
2019-03-28T00:09:12.706Z,8.1
2019-03-28T00:09:43.397Z,8.1
2019-03-28T00:10:14.097Z,8
2019-03-28T00:10:44.313Z,8
2019-03-28T00:11:14.412Z,8
2019-03-28T00:11:45.094Z,8
2019-03-28T00:12:16.315Z,8
2019-03-28T00:12:45.911Z,8
2019-03-28T00:13:16.611Z,8
2019-03-28T00:13:47.297Z,8
2019-03-28T00:15:08.149Z,7.9
2019-03-28T00:16:05.930Z,7.9
2019-03-28T00:17:05.207Z,7.9
2019-03-28T00:18:04.606Z,7.9
2019-03-28T00:19:03.492Z,7.9
2019-03-28T00:19:33.687Z,7.9
2019-03-28T00:20:04.395Z,7.9
2019-03-28T00:20:35.568Z,7.9
2019-03-28T00:21:05.267Z,7.9
2019-03-28T00:21:35.864Z,7.9
2019-03-28T00:22:06.955Z,7.9
2019-03-28T00:22:37.054Z,7.9
2019-03-28T00:23:08.490Z,7.9
2019-03-28T00:23:37.978Z,7.9
2019-03-28T00:24:58.492Z,7.8
2019-03-28T00:25:57.260Z,7.9
2019-03-28T00:26:56.628Z,7.8
2019-03-28T00:27:55.400Z,7.8
2019-03-28T00:28:54.783Z,7.8
2019-03-28T00:29:54.260Z,7.9
2019-03-28T00:30:23.996Z,7.9
2019-03-28T00:31:51.965Z,7.9
2019-03-28T00:32:22.648Z,7.9
2019-03-28T00:32:53.583Z,7.9
2019-03-28T00:33:23.675Z,7.9
2019-03-28T00:34:49.144Z,7.9
2019-03-28T00:35:48.416Z,7.9
2019-03-28T00:36:47.692Z,7.9
2019-03-28T00:37:46.563Z,7.9
2019-03-28T00:38:45.836Z,7.9
2019-03-28T00:39:44.717Z,7.9
2019-03-28T00:40:15.305Z,7.9
2019-03-28T00:40:45.900Z,7.9
2019-03-28T00:41:16.601Z,7.9
2019-03-28T00:42:42.045Z,7.9
2019-03-28T00:43:12.733Z,7.9
2019-03-28T00:44:40.207Z,7.9
2019-03-28T00:45:39.588Z,7.9
2019-03-28T00:46:38.456Z,7.9
2019-03-28T00:47:37.726Z,7.9
2019-03-28T00:48:36.505Z,7.9
2019-03-28T00:49:35.783Z,7.9
2019-03-28T00:50:35.665Z,7.9
2019-03-28T00:51:05.847Z,7.9
2019-03-28T00:51:36.538Z,7.9
2019-03-28T00:52:07.128Z,7.9
2019-03-28T00:52:37.725Z,7.8
2019-03-28T00:53:08.178Z,7.8
2019-03-28T00:54:31.200Z,7.8
2019-03-28T00:55:30.571Z,7.8
2019-03-28T00:56:47.070Z,7.8
2019-03-28T00:57:28.599Z,7.8
2019-03-28T00:58:27.689Z,7.8
2019-03-28T00:59:26.978Z,7.8
2019-03-28T01:00:25.846Z,7.8
2019-03-28T01:01:25.131Z,7.7
2019-03-28T01:01:56.548Z,7.7
2019-03-28T01:02:26.223Z,7.7
2019-03-28T01:02:56.910Z,7.7
2019-03-28T01:03:27.504Z,7.7
2019-03-28T01:03:58.088Z,7.7
2019-03-28T01:05:21.518Z,7.7
2019-03-28T01:06:20.394Z,7.7
2019-03-28T01:07:19.763Z,7.7
2019-03-28T01:08:18.537Z,7.7
2019-03-28T01:09:17.810Z,7.7
2019-03-28T01:10:17.197Z,7.7
2019-03-28T01:12:14.858Z,7.7
2019-03-28T01:12:45.540Z,7.7
2019-03-28T01:13:16.263Z,7.6
2019-03-28T01:13:46.463Z,7.6
2019-03-28T01:14:17.054Z,7.6
2019-03-28T01:14:47.550Z,7.6
2019-03-28T01:15:18.153Z,7.6
2019-03-28T01:16:11.513Z,7.6
2019-03-28T01:17:10.892Z,7.6
2019-03-28T01:18:09.683Z,7.6
2019-03-28T01:19:09.054Z,7.6
2019-03-28T01:20:07.827Z,7.6
2019-03-28T01:21:07.096Z,7.6
2019-03-28T01:22:06.723Z,7.6
2019-03-28T01:23:04.998Z,7.6
2019-03-28T01:23:35.683Z,7.6
2019-03-28T01:24:06.363Z,7.5
2019-03-28T01:25:03.137Z,7.5
2019-03-28T01:26:02.519Z,7.5
2019-03-28T01:27:01.296Z,7.5
2019-03-28T01:28:59.459Z,7.5
2019-03-28T01:29:58.835Z,7.5
2019-03-28T01:30:58.107Z,7.5
2019-03-28T01:31:56.973Z,7.5
2019-03-28T01:32:56.351Z,7.5
2019-03-28T01:33:55.121Z,7.5
2019-03-28T01:34:54.413Z,7.5
2019-03-28T01:35:53.280Z,7.5
2019-03-28T01:36:52.553Z,7.5
2019-03-28T01:37:51.326Z,7.5
2019-03-28T01:38:50.623Z,7.5
2019-03-28T01:39:21.316Z,7.5
2019-03-28T01:39:51.899Z,7.5
2019-03-28T01:40:49.064Z,7.5
2019-03-28T01:41:47.735Z,7.5
2019-03-28T01:42:47.129Z,7.5
2019-03-28T01:43:45.899Z,7.5
2019-03-28T01:44:45.169Z,7.5
2019-03-28T01:45:44.146Z,7.5
2019-03-28T01:46:43.332Z,7.5
2019-03-28T01:47:43.706Z,7.5
2019-03-28T01:48:41.465Z,7.5
2019-03-28T01:49:12.166Z,7.5
2019-03-28T01:49:42.349Z,7.4
2019-03-28T01:50:12.846Z,7.4
2019-03-28T01:50:43.434Z,7.4
2019-03-28T01:51:39.189Z,7.4
2019-03-28T01:52:37.865Z,7.4
2019-03-28T01:53:37.096Z,7.4
2019-03-28T01:54:36.471Z,7.4
2019-03-28T01:55:35.384Z,7.4
2019-03-28T01:56:34.265Z,7.4
2019-03-28T01:57:33.542Z,7.4
2019-03-28T01:58:32.315Z,7.4
2019-03-28T01:59:03.014Z,7.4
2019-03-28T01:59:33.607Z,7.4
2019-03-28T02:00:04.312Z,7.4
2019-03-28T02:01:30.647Z,7.4
2019-03-28T02:02:29.016Z,7.4
2019-03-28T02:03:27.893Z,7.4
2019-03-28T02:04:28.140Z,7.4
2019-03-28T02:06:25.402Z,7.3
2019-03-28T02:07:24.178Z,7.3
2019-03-28T02:08:26.117Z,7.3
2019-03-28T02:08:53.792Z,7.3
2019-03-28T02:09:24.488Z,7.3
2019-03-28T02:09:55.089Z,7.3
2019-03-28T02:10:25.696Z,7.3
2019-03-28T02:10:56.314Z,7.3
2019-03-28T02:12:19.665Z,7.3
2019-03-28T02:13:19.035Z,7.3
2019-03-28T02:14:17.902Z,7.3
2019-03-28T02:15:17.281Z,7.3
2019-03-28T02:16:16.166Z,7.3
2019-03-28T02:17:15.545Z,7.3
2019-03-28T02:18:14.324Z,7.3
2019-03-28T02:18:45.012Z,7.3
2019-03-28T02:19:15.694Z,7.3
2019-03-28T02:19:46.385Z,7.3
2019-03-28T02:20:17.074Z,7.3
2019-03-28T02:20:47.775Z,7.3
2019-03-28T02:21:17.968Z,7.3
2019-03-28T02:21:48.653Z,7.3
2019-03-28T02:23:10.654Z,7.3
2019-03-28T02:24:09.036Z,7.3
2019-03-28T02:25:07.696Z,7.3
2019-03-28T02:26:06.876Z,7.3
2019-03-28T02:27:06.172Z,7.3
2019-03-28T02:28:05.449Z,7.2
2019-03-28T02:28:36.080Z,7.2
2019-03-28T02:29:07.552Z,7.2
2019-03-28T02:29:37.134Z,7.2
2019-03-28T02:30:07.781Z,7.2
2019-03-28T02:30:38.404Z,7.2
2019-03-28T02:31:09.136Z,7.2
2019-03-28T02:31:39.238Z,7.2
2019-03-28T02:33:59.654Z,7.2
2019-03-28T02:34:59.053Z,7.2
2019-03-28T02:35:57.842Z,7.2
2019-03-28T02:36:57.196Z,7.1
2019-03-28T02:37:56.093Z,7.1
2019-03-28T02:38:26.236Z,7.1
2019-03-28T02:38:56.958Z,7.1
2019-03-28T02:39:27.092Z,7.1
2019-03-28T02:39:57.841Z,7.1
2019-03-28T02:40:28.450Z,7.1
2019-03-28T02:40:59.077Z,7.1
2019-03-28T02:41:29.287Z,7.1
2019-03-28T02:41:59.558Z,7.1
2019-03-28T02:42:29.780Z,7.1
2019-03-28T02:43:50.720Z,7.1
2019-03-28T02:44:49.494Z,7.1
2019-03-28T02:45:48.876Z,7.1
2019-03-28T02:46:48.203Z,7.1
2019-03-28T02:47:46.926Z,7.1
2019-03-28T02:48:17.646Z,7.1
2019-03-28T02:48:47.867Z,7.1
2019-03-28T02:49:18.084Z,7.1
2019-03-28T02:49:48.284Z,7.1
2019-03-28T02:50:18.478Z,7.1
2019-03-28T02:50:49.094Z,7.1
2019-03-28T02:51:19.611Z,7.1
2019-03-28T02:51:50.314Z,7.1
2019-03-28T02:52:22.153Z,7.1
2019-03-28T02:52:51.361Z,7.1
2019-03-28T02:53:21.482Z,7.1
2019-03-28T02:54:40.426Z,7
2019-03-28T02:55:39.702Z,7
2019-03-28T02:56:38.987Z,7
2019-03-28T02:57:44.933Z,7
2019-03-28T02:58:38.059Z,7
2019-03-28T02:59:07.666Z,7
2019-03-28T02:59:37.865Z,7
2019-03-28T03:00:08.094Z,7
2019-03-28T03:00:38.307Z,7
2019-03-28T03:01:08.500Z,7
2019-03-28T03:01:39.212Z,7
2019-03-28T03:02:09.477Z,7
2019-03-28T03:02:39.743Z,7
2019-03-28T03:03:10.137Z,7
2019-03-28T03:04:31.688Z,7
2019-03-28T03:05:30.593Z,7
2019-03-28T03:06:29.877Z,7
2019-03-28T03:07:28.778Z,7
2019-03-28T03:08:27.873Z,7
2019-03-28T03:09:27.024Z,7
2019-03-28T03:09:57.249Z,7
2019-03-28T03:10:27.443Z,7
2019-03-28T03:10:58.048Z,7
2019-03-28T03:11:28.554Z,7
2019-03-28T03:11:59.167Z,7
2019-03-28T03:12:29.298Z,7
2019-03-28T03:12:59.924Z,7
2019-03-28T03:14:22.456Z,7
2019-03-28T03:15:21.342Z,7
2019-03-28T03:16:20.751Z,7
2019-03-28T03:17:19.555Z,7
2019-03-28T03:18:22.852Z,7
2019-03-28T03:19:17.710Z,7
2019-03-28T03:20:18.265Z,7
2019-03-28T03:20:47.456Z,7
2019-03-28T03:21:17.568Z,7
2019-03-28T03:21:48.374Z,7
2019-03-28T03:22:18.492Z,7
2019-03-28T03:22:49.081Z,7
2019-03-28T03:24:13.177Z,7
2019-03-28T03:26:11.457Z,7
2019-03-28T03:27:10.437Z,7
2019-03-28T03:28:09.719Z,7
2019-03-28T03:29:08.608Z,7
2019-03-28T03:30:08.099Z,7
2019-03-28T03:31:07.068Z,7
2019-03-28T03:31:37.334Z,7
2019-03-28T03:32:07.594Z,7
2019-03-28T03:32:37.742Z,7
2019-03-28T03:34:06.779Z,7
2019-03-28T03:35:03.703Z,7
2019-03-28T03:36:02.097Z,7
2019-03-28T03:37:01.600Z,7
2019-03-28T03:38:00.561Z,7
2019-03-28T03:38:59.373Z,6.9
2019-03-28T03:39:58.758Z,6.9
2019-03-28T03:40:57.638Z,6.9
2019-03-28T03:41:27.869Z,6.9
2019-03-28T03:41:58.058Z,6.9
2019-03-28T03:42:28.763Z,6.9
2019-03-28T03:43:54.846Z,7
2019-03-28T03:45:53.088Z,7
2019-03-28T03:46:51.894Z,7
2019-03-28T03:47:51.201Z,7
2019-03-28T03:48:50.603Z,7
2019-03-28T03:49:49.380Z,7
2019-03-28T03:50:49.601Z,7
2019-03-28T03:51:48.022Z,7
2019-03-28T03:52:17.720Z,7
2019-03-28T03:52:47.930Z,7
2019-03-28T03:53:18.135Z,7
2019-03-28T03:53:48.331Z,6.9
2019-03-28T03:54:44.701Z,7
2019-03-28T03:55:44.111Z,6.9
2019-03-28T03:56:43.014Z,6.9
2019-03-28T03:58:41.199Z,6.9
2019-03-28T03:59:39.918Z,6.9
2019-03-28T04:00:39.322Z,6.9
2019-03-28T04:01:38.197Z,6.9
2019-03-28T04:02:38.106Z,6.9
2019-03-28T04:03:07.718Z,6.9
2019-03-28T04:03:38.428Z,6.9
2019-03-28T04:04:35.759Z,6.9
2019-03-28T04:05:34.560Z,6.9
2019-03-28T04:06:33.754Z,6.9
2019-03-28T04:07:33.131Z,6.9
2019-03-28T04:08:03.761Z,6.9
2019-03-28T04:08:34.475Z,6.9
2019-03-28T04:09:30.842Z,6.9
2019-03-28T04:10:30.152Z,6.9
2019-03-28T04:11:29.468Z,6.9
2019-03-28T04:12:28.371Z,6.9
2019-03-28T04:13:27.284Z,6.9
2019-03-28T04:14:26.748Z,6.9
2019-03-28T04:15:25.550Z,6.9
2019-03-28T04:16:24.467Z,6.9
2019-03-28T04:17:23.873Z,6.9
2019-03-28T04:17:54.075Z,6.9
2019-03-28T04:18:24.283Z,6.9
2019-03-28T04:18:54.479Z,6.9
2019-03-28T04:19:24.672Z,6.9
2019-03-28T04:20:21.041Z,6.9
2019-03-28T04:21:19.928Z,6.9
2019-03-28T04:22:19.342Z,6.9
2019-03-28T04:23:18.189Z,6.9
2019-03-28T04:24:17.000Z,6.9
2019-03-28T04:25:16.392Z,6.8
2019-03-28T04:26:15.281Z,6.8
2019-03-28T04:27:14.569Z,6.8
2019-03-28T04:27:45.234Z,6.8
2019-03-28T04:28:33.631Z,6.8
2019-03-28T04:28:46.223Z,6.8
2019-03-28T04:30:11.818Z,6.8
2019-03-28T04:31:10.870Z,6.8
2019-03-28T04:32:09.766Z,6.8
2019-03-28T04:33:09.175Z,6.9
2019-03-28T04:34:10.948Z,6.8
2019-03-28T04:35:07.220Z,6.8
2019-03-28T04:36:05.921Z,6.8
2019-03-28T04:37:05.364Z,6.8
2019-03-28T04:37:35.721Z,6.8
2019-03-28T04:38:05.833Z,6.8
2019-03-28T04:38:36.522Z,6.8
2019-03-28T04:39:07.222Z,6.8
2019-03-28T04:39:37.467Z,6.8
2019-03-28T04:41:01.805Z,6.8
2019-03-28T04:42:00.584Z,6.8
2019-03-28T04:42:59.976Z,6.8
2019-03-28T04:43:58.693Z,6.8
2019-03-28T04:44:58.072Z,6.8
2019-03-28T04:45:57.498Z,6.8
2019-03-28T04:46:56.381Z,6.9
2019-03-28T04:47:27.117Z,6.9
2019-03-28T04:47:57.307Z,6.8
2019-03-28T04:48:28.487Z,6.8
2019-03-28T04:48:58.195Z,6.8
2019-03-28T04:49:28.289Z,6.8
2019-03-28T04:49:58.978Z,6.9
2019-03-28T04:50:29.572Z,6.9
2019-03-28T04:51:51.595Z,6.9
2019-03-28T04:52:53.864Z,6.9
2019-03-28T04:53:49.614Z,6.9
2019-03-28T04:54:48.974Z,6.8
2019-03-28T04:55:48.517Z,6.9
2019-03-28T04:56:46.793Z,6.9
2019-03-28T04:57:17.538Z,6.9
2019-03-28T04:57:47.624Z,6.9
2019-03-28T04:58:21.365Z,6.9
2019-03-28T04:58:49.854Z,6.9
2019-03-28T04:59:18.851Z,6.9
2019-03-28T04:59:49.528Z,6.9
2019-03-28T05:00:20.021Z,6.9
2019-03-28T05:00:50.708Z,6.9
2019-03-28T05:01:21.395Z,6.9
2019-03-28T05:02:41.314Z,6.9
2019-03-28T05:03:40.516Z,6.9
2019-03-28T05:05:38.788Z,6.9
2019-03-28T05:06:39.252Z,6.9
2019-03-28T05:07:07.831Z,6.9
2019-03-28T05:07:38.518Z,6.9
2019-03-28T05:08:09.631Z,6.9
2019-03-28T05:08:39.821Z,6.9
2019-03-28T05:09:10.508Z,6.9
2019-03-28T05:09:41.196Z,6.9
2019-03-28T05:10:11.887Z,6.9
2019-03-28T05:10:42.985Z,6.9
2019-03-28T05:11:13.168Z,6.9
2019-03-28T05:11:43.858Z,6.9
2019-03-28T05:12:14.447Z,6.9
2019-03-28T05:13:31.342Z,6.9
2019-03-28T05:14:30.203Z,6.9
2019-03-28T05:15:29.575Z,6.9
2019-03-28T05:16:28.463Z,7
2019-03-28T05:17:27.833Z,6.9
2019-03-28T05:17:58.435Z,6.9
2019-03-28T05:18:28.941Z,6.9
2019-03-28T05:18:59.540Z,6.9
2019-03-28T05:19:30.025Z,6.9
2019-03-28T05:20:00.887Z,6.9
2019-03-28T05:20:30.872Z,6.9
2019-03-28T05:21:01.464Z,6.9
2019-03-28T05:23:22.661Z,7
2019-03-28T05:24:20.933Z,7
2019-03-28T05:25:20.303Z,7
2019-03-28T05:26:19.165Z,7
2019-03-28T05:27:18.366Z,7
2019-03-28T05:28:17.740Z,7
2019-03-28T05:29:00.377Z,7
2019-03-28T05:29:18.917Z,7
2019-03-28T05:29:49.554Z,7
2019-03-28T05:30:20.147Z,7
2019-03-28T05:30:50.726Z,7
2019-03-28T05:31:21.333Z,7
2019-03-28T05:31:51.928Z,7
2019-03-28T05:33:12.762Z,7
2019-03-28T05:34:12.179Z,7
2019-03-28T05:35:10.865Z,7
2019-03-28T05:36:10.156Z,7
2019-03-28T05:37:09.036Z,7
2019-03-28T05:38:08.493Z,7
2019-03-28T05:38:38.672Z,7
2019-03-28T05:40:06.767Z,7
2019-03-28T05:40:37.767Z,7
2019-03-28T05:41:07.530Z,7
2019-03-28T05:41:37.729Z,7
2019-03-28T05:43:03.604Z,7
2019-03-28T05:44:02.887Z,7
2019-03-28T05:45:01.766Z,7
2019-03-28T05:46:01.036Z,7
2019-03-28T05:47:00.223Z,7
2019-03-28T05:48:01.537Z,7
2019-03-28T05:48:58.400Z,7
2019-03-28T05:49:29.088Z,7
2019-03-28T05:50:56.740Z,7
2019-03-28T05:51:26.948Z,7
2019-03-28T05:51:57.048Z,7
2019-03-28T05:52:27.732Z,7
2019-03-28T05:52:58.329Z,7
2019-03-28T05:53:53.586Z,7
2019-03-28T05:54:52.956Z,7
2019-03-28T05:55:51.897Z,7
2019-03-28T05:56:50.771Z,7
2019-03-28T05:57:50.044Z,7
2019-03-28T05:58:48.929Z,7
2019-03-28T05:59:48.216Z,7
2019-03-28T06:00:18.712Z,7
2019-03-28T06:00:52.661Z,7
2019-03-28T06:01:19.734Z,7
2019-03-28T06:02:45.242Z,7
2019-03-28T06:03:44.615Z,7
2019-03-28T06:04:43.397Z,7
2019-03-28T06:05:42.772Z,7
2019-03-28T06:06:41.727Z,7
2019-03-28T06:07:40.596Z,7
2019-03-28T06:08:39.877Z,7
2019-03-28T06:09:41.283Z,7.1
2019-03-28T06:10:38.038Z,7
2019-03-28T06:11:08.718Z,7
2019-03-28T06:12:36.174Z,7.1
2019-03-28T06:15:33.218Z,7.1
2019-03-28T06:17:31.382Z,7.1
2019-03-28T06:18:30.763Z,7.1
2019-03-28T06:19:29.691Z,7.1
2019-03-28T06:20:28.977Z,7.1
2019-03-28T06:21:27.758Z,7.1
2019-03-28T06:21:58.531Z,7.1
2019-03-28T06:22:28.724Z,7.1
2019-03-28T06:24:25.379Z,7.1
2019-03-28T06:25:24.454Z,7.1
2019-03-28T06:26:23.346Z,7.1
2019-03-28T06:26:53.334Z,7.1
2019-03-28T06:27:24.001Z,7.1
2019-03-28T06:28:21.175Z,7.1
2019-03-28T06:29:26.803Z,7.1
2019-03-28T06:30:19.793Z,7.1
2019-03-28T06:32:17.945Z,7.1
2019-03-28T06:33:16.722Z,7.1
2019-03-28T06:34:16.096Z,7.1
2019-03-28T06:35:14.974Z,7.1
2019-03-28T06:36:15.499Z,7.1
2019-03-28T06:36:44.573Z,7.1
2019-03-28T06:38:12.547Z,7.1
2019-03-28T06:39:11.414Z,7.2
2019-03-28T06:40:10.791Z,7.1
2019-03-28T06:41:09.677Z,7.1
2019-03-28T06:42:08.458Z,7.2
2019-03-28T06:43:07.738Z,7.2
2019-03-28T06:44:07.120Z,7.2
2019-03-28T06:45:06.007Z,7.1
2019-03-28T06:46:04.691Z,7.1
2019-03-28T06:46:35.375Z,7.1
2019-03-28T06:47:05.973Z,7.1
2019-03-28T06:47:36.574Z,7.1
2019-03-28T06:49:02.122Z,7.2
2019-03-28T06:50:01.594Z,7.2
2019-03-28T06:51:00.270Z,7.2
2019-03-28T06:51:59.648Z,7.2
2019-03-28T06:52:58.540Z,7.2
2019-03-28T06:53:58.553Z,7.2
2019-03-28T06:54:57.630Z,7.2
2019-03-28T06:55:55.993Z,7.2
2019-03-28T06:56:26.846Z,7.2
2019-03-28T06:56:57.050Z,7.2
2019-03-28T06:57:27.233Z,7.2
2019-03-28T06:57:57.931Z,7.2
2019-03-28T06:58:28.418Z,7.2
2019-03-28T06:59:52.261Z,7.3
2019-03-28T07:00:51.134Z,7.3
2019-03-28T07:01:50.512Z,7.3
2019-03-28T07:02:49.285Z,7.3
2019-03-28T07:03:48.725Z,7.3
2019-03-28T07:04:47.404Z,7.3
2019-03-28T07:05:46.691Z,7.2
2019-03-28T07:06:17.282Z,7.2
2019-03-28T07:06:47.783Z,7.2
2019-03-28T07:07:19.576Z,7.2
2019-03-28T07:07:48.761Z,7.2
2019-03-28T07:08:18.865Z,7.2
2019-03-28T07:08:49.564Z,7.3
2019-03-28T07:09:20.161Z,7.3
2019-03-28T07:10:42.189Z,7.3
2019-03-28T07:11:41.469Z,7.3
2019-03-28T07:12:40.151Z,7.3
2019-03-28T07:13:39.443Z,7.3
2019-03-28T07:14:38.721Z,7.3
2019-03-28T07:15:38.081Z,7.3
2019-03-28T07:16:37.003Z,7.3
2019-03-28T07:17:07.091Z,7.3
2019-03-28T07:17:37.802Z,7.3
2019-03-28T07:18:08.003Z,7.3
2019-03-28T07:18:38.262Z,7.3
2019-03-28T07:19:08.356Z,7.3
2019-03-28T07:19:38.948Z,7.3
2019-03-28T07:20:10.511Z,7.3
2019-03-28T07:21:31.827Z,7.3
2019-03-28T07:22:31.199Z,7.3
2019-03-28T07:23:30.575Z,7.3
2019-03-28T07:24:29.372Z,7.3
2019-03-28T07:25:28.656Z,7.3
2019-03-28T07:26:27.686Z,7.4
2019-03-28T07:26:57.685Z,7.4
2019-03-28T07:27:28.372Z,7.4
2019-03-28T07:27:59.072Z,7.4
2019-03-28T07:28:29.565Z,7.4
2019-03-28T07:29:00.716Z,7.4
2019-03-28T07:29:30.802Z,7.4
2019-03-28T07:30:01.527Z,7.4
2019-03-28T07:30:31.423Z,7.4
2019-03-28T07:31:02.023Z,7.4
2019-03-28T07:32:22.037Z,7.4
2019-03-28T07:33:21.328Z,7.4
2019-03-28T07:34:20.202Z,7.4
2019-03-28T07:35:19.396Z,7.4
2019-03-28T07:36:18.629Z,7.4
2019-03-28T07:36:49.228Z,7.4
2019-03-28T07:37:19.914Z,7.5
2019-03-28T07:37:50.605Z,7.5
2019-03-28T07:38:20.706Z,7.4
2019-03-28T07:38:51.019Z,7.4
2019-03-28T07:39:21.623Z,7.4
2019-03-28T07:39:52.119Z,7.4
2019-03-28T07:40:22.793Z,7.5
2019-03-28T07:40:54.633Z,7.5
2019-03-28T07:42:13.152Z,7.5
2019-03-28T07:43:12.239Z,7.5
2019-03-28T07:44:11.128Z,7.6
2019-03-28T07:45:10.511Z,7.6
2019-03-28T07:46:09.380Z,7.6
2019-03-28T07:47:08.769Z,7.5
2019-03-28T07:47:39.376Z,7.5
2019-03-28T07:48:09.971Z,7.5
2019-03-28T07:48:40.459Z,7.5
2019-03-28T07:49:11.014Z,7.5
2019-03-28T07:49:41.620Z,7.5
2019-03-28T07:50:12.928Z,7.6
2019-03-28T07:50:43.813Z,7.6
2019-03-28T07:52:04.237Z,7.5
2019-03-28T07:53:03.128Z,7.6
2019-03-28T07:54:02.008Z,7.6
2019-03-28T07:55:01.555Z,7.6
2019-03-28T07:56:00.337Z,7.6
2019-03-28T07:56:59.610Z,7.6
2019-03-28T07:57:30.320Z,7.6
2019-03-28T07:58:00.815Z,7.6
2019-03-28T07:58:31.507Z,7.6
2019-03-28T07:59:02.787Z,7.6
2019-03-28T07:59:32.379Z,7.6
2019-03-28T08:00:06.347Z,7.6
2019-03-28T08:00:33.517Z,7.6
2019-03-28T08:01:54.945Z,7.7
2019-03-28T08:02:54.911Z,7.7
2019-03-28T08:03:53.198Z,7.7
2019-03-28T08:04:51.984Z,7.6
2019-03-28T08:05:51.264Z,7.7
2019-03-28T08:06:52.855Z,7.7
2019-03-28T08:07:49.729Z,7.7
2019-03-28T08:08:20.232Z,7.7
2019-03-28T08:08:50.848Z,7.7
2019-03-28T08:09:21.547Z,7.7
2019-03-28T08:09:52.148Z,7.7
2019-03-28T08:10:22.752Z,7.7
2019-03-28T08:11:49.491Z,7.7
2019-03-28T08:12:44.764Z,7.7
2019-03-28T08:13:44.140Z,7.7
2019-03-28T08:14:42.823Z,7.7
2019-03-28T08:15:42.104Z,7.7
2019-03-28T08:16:41.390Z,7.7
2019-03-28T08:17:40.274Z,7.7
2019-03-28T08:18:39.627Z,7.8
2019-03-28T08:19:11.444Z,7.8
2019-03-28T08:19:42.657Z,7.8
2019-03-28T08:20:11.331Z,7.8
2019-03-28T08:20:41.924Z,7.8
2019-03-28T08:21:12.614Z,7.8
2019-03-28T08:22:36.053Z,7.8
2019-03-28T08:23:36.709Z,7.9
2019-03-28T08:24:34.081Z,7.9
2019-03-28T08:25:33.271Z,7.9
2019-03-28T08:26:32.161Z,7.9
2019-03-28T08:27:31.438Z,7.9
2019-03-28T08:28:30.332Z,7.9
2019-03-28T08:29:29.637Z,7.9
2019-03-28T08:30:00.704Z,7.9
2019-03-28T08:30:30.801Z,8
2019-03-28T08:31:01.402Z,8
2019-03-28T08:31:32.093Z,8
2019-03-28T08:32:02.789Z,8
2019-03-28T08:32:33.466Z,8
2019-03-28T08:33:27.019Z,8
2019-03-28T08:35:24.170Z,8
2019-03-28T08:36:23.540Z,8
2019-03-28T08:37:22.415Z,8
2019-03-28T08:38:21.204Z,8.1
2019-03-28T08:39:20.593Z,8.1
2019-03-28T08:40:19.964Z,8.1
2019-03-28T08:40:51.652Z,8.1
2019-03-28T08:41:21.130Z,8.1
2019-03-28T08:42:17.856Z,8.1
2019-03-28T08:43:17.137Z,8.1
2019-03-28T08:44:15.928Z,8.1
2019-03-28T08:45:15.117Z,8.2
2019-03-28T08:46:14.494Z,8.2
2019-03-28T08:47:13.366Z,8.2
2019-03-28T08:48:12.751Z,8.2
2019-03-28T08:49:11.668Z,8.2
2019-03-28T08:50:10.564Z,8.2
2019-03-28T08:51:09.898Z,8.2
2019-03-28T08:52:12.587Z,8.2
2019-03-28T08:53:07.841Z,8.2
2019-03-28T08:54:07.160Z,8.3
2019-03-28T08:55:05.939Z,8.3
2019-03-28T08:56:05.216Z,8.4
2019-03-28T08:56:35.810Z,8.4
2019-03-28T08:57:06.502Z,8.4
2019-03-28T08:58:03.463Z,8.4
2019-03-28T08:59:02.757Z,8.4
2019-03-28T09:00:01.646Z,8.4
2019-03-28T09:01:00.933Z,8.5
2019-03-28T09:01:59.719Z,8.5
2019-03-28T09:02:59.098Z,8.5
2019-03-28T09:03:57.872Z,8.4
2019-03-28T09:05:56.649Z,8.5
2019-03-28T09:06:27.282Z,8.5
2019-03-28T09:07:55.034Z,8.5
2019-03-28T09:08:53.826Z,8.5
2019-03-28T09:09:52.606Z,8.5
2019-03-28T09:10:51.881Z,8.5
2019-03-28T09:11:51.268Z,8.5
2019-03-28T09:12:50.149Z,8.6
2019-03-28T09:13:49.653Z,8.6
2019-03-28T09:14:48.942Z,8.6
2019-03-28T09:15:47.308Z,8.6
2019-03-28T09:16:17.940Z,8.6
2019-03-28T09:16:48.524Z,8.7
2019-03-28T09:17:19.030Z,8.7
2019-03-28T09:18:44.983Z,8.7
2019-03-28T09:19:43.857Z,8.7
2019-03-28T09:20:43.142Z,8.7
2019-03-28T09:21:41.919Z,8.7
2019-03-28T09:22:41.297Z,8.7
2019-03-28T09:23:40.160Z,8.8
2019-03-28T09:24:39.352Z,8.7
2019-03-28T09:25:38.744Z,8.7
2019-03-28T09:26:09.442Z,8.7
2019-03-28T09:26:39.716Z,8.8
2019-03-28T09:27:09.948Z,8.8
2019-03-28T09:27:40.135Z,8.8
2019-03-28T09:28:10.830Z,8.8
2019-03-28T09:29:34.787Z,8.8
2019-03-28T09:30:50.642Z,8.8
2019-03-28T09:31:04.630Z,8.8
2019-03-28T09:31:35.224Z,8.9
2019-03-28T09:32:32.583Z,8.8
2019-03-28T09:33:31.378Z,8.9
2019-03-28T09:34:30.762Z,8.9
2019-03-28T09:35:29.923Z,8.9
2019-03-28T09:36:00.109Z,8.9
2019-03-28T09:37:28.190Z,8.9
2019-03-28T09:37:58.385Z,8.9
2019-03-28T09:38:28.893Z,8.9
2019-03-28T09:38:59.590Z,8.9
2019-03-28T09:41:24.547Z,9
2019-03-28T09:42:23.218Z,9
2019-03-28T09:43:22.429Z,9.1
2019-03-28T09:44:21.817Z,9.1
2019-03-28T09:45:20.613Z,9
2019-03-28T09:45:51.309Z,9
2019-03-28T09:46:21.898Z,9
2019-03-28T09:46:52.486Z,9
2019-03-28T09:47:23.178Z,9
2019-03-28T09:47:53.865Z,9
2019-03-28T09:48:24.456Z,9
2019-03-28T09:48:55.143Z,9
2019-03-28T09:49:25.723Z,9
2019-03-28T09:49:56.349Z,9
2019-03-28T09:51:15.741Z,9
2019-03-28T09:52:14.612Z,9
2019-03-28T09:54:13.048Z,9.1
2019-03-28T09:55:12.014Z,9
2019-03-28T09:55:42.232Z,9
2019-03-28T09:56:12.319Z,9
2019-03-28T09:56:43.011Z,9
2019-03-28T09:57:13.705Z,8.9
2019-03-28T09:57:44.394Z,8.9
2019-03-28T09:58:14.988Z,9
2019-03-28T09:58:45.681Z,9
2019-03-28T09:59:16.368Z,9
2019-03-28T09:59:47.040Z,9
2019-03-28T10:00:17.747Z,9
2019-03-28T10:01:04.434Z,9
2019-03-28T10:02:05.741Z,9
2019-03-28T10:03:05.019Z,9
2019-03-28T10:04:07.735Z,9
2019-03-28T10:05:03.497Z,9
2019-03-28T10:06:02.183Z,9
2019-03-28T10:06:32.881Z,9
2019-03-28T10:07:03.381Z,9
2019-03-28T10:07:34.116Z,9
2019-03-28T10:08:04.284Z,9
2019-03-28T10:08:34.884Z,9
2019-03-28T10:09:05.582Z,9
2019-03-28T10:09:38.657Z,9
2019-03-28T10:10:10.346Z,9
2019-03-28T10:10:37.012Z,9
2019-03-28T10:11:56.925Z,8.9
2019-03-28T10:12:56.299Z,9
2019-03-28T10:13:55.765Z,9
2019-03-28T10:14:54.547Z,9.1
2019-03-28T10:15:53.640Z,9.1
2019-03-28T10:16:52.907Z,9.1
2019-03-28T10:17:23.494Z,9.1
2019-03-28T10:17:55.569Z,9.2
2019-03-28T10:18:24.740Z,9.2
2019-03-28T10:18:55.329Z,9.1
2019-03-28T10:19:26.057Z,9.1
2019-03-28T10:19:56.249Z,9.1
2019-03-28T10:20:26.989Z,9.1
2019-03-28T10:21:48.511Z,9.2
2019-03-28T10:22:47.399Z,9.3
2019-03-28T10:23:46.779Z,9.2
2019-03-28T10:24:45.825Z,9.3
2019-03-28T10:25:44.626Z,9.3
2019-03-28T10:26:44.005Z,9.3
2019-03-28T10:27:43.392Z,9.3
2019-03-28T10:28:14.116Z,9.3
2019-03-28T10:28:44.214Z,9.4
2019-03-28T10:29:14.915Z,9.4
2019-03-28T10:29:45.099Z,9.4
2019-03-28T10:30:15.696Z,9.4
2019-03-28T10:31:39.818Z,9.3
2019-03-28T10:32:38.695Z,9.3
2019-03-28T10:33:38.065Z,9.3
2019-03-28T10:34:36.945Z,9.3
2019-03-28T10:35:36.228Z,9.4
2019-03-28T10:36:35.114Z,9.4
2019-03-28T10:37:34.574Z,9.4
2019-03-28T10:38:33.430Z,9.4
2019-03-28T10:39:04.024Z,9.4
2019-03-28T10:39:34.715Z,9.5
2019-03-28T10:40:05.211Z,9.5
2019-03-28T10:41:30.760Z,9.5
2019-03-28T10:42:30.036Z,9.5
2019-03-28T10:43:29.454Z,9.6
2019-03-28T10:44:28.326Z,9.6
2019-03-28T10:45:27.196Z,9.6
2019-03-28T10:46:26.582Z,9.6
2019-03-28T10:47:25.256Z,9.6
2019-03-28T10:49:24.022Z,9.6
2019-03-28T10:49:54.714Z,9.6
2019-03-28T10:51:22.176Z,9.5
2019-03-28T10:52:21.553Z,9.5
2019-03-28T10:53:20.331Z,9.6
2019-03-28T10:55:18.592Z,9.6
2019-03-28T10:56:25.334Z,9.6
2019-03-28T10:58:20.582Z,9.6
2019-03-28T10:59:26.327Z,9.6
2019-03-28T11:00:26.773Z,9.7
2019-03-28T11:00:44.282Z,9.7
2019-03-28T11:01:51.584Z,9.7
2019-03-28T11:01:53.586Z,9.7
2019-03-28T11:03:11.588Z,9.7
2019-03-28T11:04:10.766Z,9.7
2019-03-28T11:05:10.043Z,9.7
2019-03-28T11:05:41.883Z,9.7
2019-03-28T11:07:08.437Z,9.8
2019-03-28T11:08:07.217Z,9.8
2019-03-28T11:09:06.608Z,9.8
2019-03-28T11:10:05.495Z,9.9
2019-03-28T11:10:35.704Z,9.9
2019-03-28T11:11:06.297Z,9.9
2019-03-28T11:12:04.173Z,9.9
2019-03-28T11:13:03.135Z,9.9
2019-03-28T11:14:02.121Z,10
2019-03-28T11:15:01.513Z,10
2019-03-28T11:16:00.387Z,10
2019-03-28T11:16:31.078Z,10
2019-03-28T11:17:01.779Z,10
2019-03-28T11:17:58.632Z,10
2019-03-28T11:18:58.019Z,10
2019-03-28T11:19:57.521Z,10
2019-03-28T11:20:56.392Z,10
2019-03-28T11:21:55.272Z,10.1
2019-03-28T11:22:54.559Z,10.1
2019-03-28T11:23:53.235Z,10.1
2019-03-28T11:24:52.544Z,10.1
2019-03-28T11:25:51.942Z,10.1
2019-03-28T11:26:22.128Z,10.1
2019-03-28T11:27:51.146Z,10.2
2019-03-28T11:28:49.003Z,10.2
2019-03-28T11:29:48.337Z,10.2
2019-03-28T11:30:47.815Z,10.3
2019-03-28T11:33:49.075Z,10.2
2019-03-28T11:33:51.152Z,10.2
2019-03-28T11:34:43.905Z,10.3
2019-03-28T11:35:43.083Z,10.3
2019-03-28T11:36:13.792Z,10.3
2019-03-28T11:36:44.047Z,10.4
2019-03-28T11:37:29.066Z,10.4
2019-03-28T11:38:40.534Z,10.4
2019-03-28T11:39:40.032Z,10.4
2019-03-28T11:40:43.830Z,10.5
2019-03-28T11:41:38.178Z,10.5
2019-03-28T11:42:37.094Z,10.5
2019-03-28T11:43:36.407Z,10.5